createdAt,value
2023-04-24T00:00:00.518Z,1
2023-04-24T00:05:00.606Z,1
2023-04-24T00:10:00.543Z,1
2023-04-24T00:15:00.517Z,0
2023-04-24T00:20:00.545Z,1
2023-04-24T00:25:00.513Z,1
2023-04-24T00:30:00.539Z,1
2023-04-24T00:35:00.545Z,1
2023-04-24T00:40:00.516Z,1
2023-04-24T00:45:00.534Z,1
2023-04-24T00:50:00.562Z,1
2023-04-24T00:55:00.537Z,1
2023-04-24T01:00:00.525Z,1
2023-04-24T01:05:00.562Z,1
2023-04-24T01:10:00.540Z,1
2023-04-24T01:15:00.545Z,1
2023-04-24T01:20:00.528Z,2
2023-04-24T01:25:00.557Z,3
2023-04-24T01:30:00.592Z,3
2023-04-24T01:35:00.547Z,3
2023-04-24T01:40:00.540Z,2
2023-04-24T01:45:00.555Z,3
2023-04-24T01:50:00.562Z,3
2023-04-24T02:00:00.572Z,2
2023-04-24T02:05:00.553Z,1
2023-04-24T02:15:00.558Z,0
2023-04-24T02:20:00.531Z,1
2023-04-24T02:25:00.543Z,0
2023-04-24T02:30:00.523Z,1
2023-04-24T02:35:00.719Z,1
2023-04-24T02:45:00.552Z,2
2023-04-24T02:50:00.533Z,1
2023-04-24T02:55:00.561Z,1
2023-04-24T03:00:00.598Z,1
2023-04-24T03:05:00.562Z,1
2023-04-24T03:10:00.547Z,1
2023-04-24T03:15:00.559Z,3
2023-04-24T03:20:00.537Z,2
2023-04-24T03:30:00.528Z,1
2023-04-24T03:35:00.563Z,1
2023-04-24T03:40:00.528Z,3
2023-04-24T03:45:00.556Z,3
2023-04-24T03:50:00.606Z,1
2023-04-24T03:55:00.558Z,1
2023-04-24T04:00:00.513Z,2
2023-04-24T04:05:00.629Z,1
2023-04-24T04:10:00.527Z,1
2023-04-24T04:20:00.560Z,1
2023-04-24T04:25:00.541Z,1
2023-04-24T04:30:00.536Z,1
2023-04-24T04:35:00.550Z,1
2023-04-24T04:40:00.541Z,1
2023-04-24T04:45:00.567Z,1
2023-04-24T04:50:00.542Z,1
2023-04-24T04:55:00.585Z,1
2023-04-24T05:00:00.657Z,1
2023-04-24T05:05:00.719Z,1
2023-04-24T05:30:00.508Z,3
2023-04-24T05:35:00.558Z,2
2023-04-24T05:40:00.580Z,2
2023-04-24T05:45:00.564Z,2
2023-04-24T05:50:00.607Z,2
2023-04-24T05:55:00.562Z,3
2023-04-24T06:00:00.523Z,3
2023-04-24T06:05:00.654Z,4
2023-04-24T06:10:00.496Z,3
2023-04-24T06:15:00.556Z,4
2023-04-24T06:20:00.523Z,4
2023-04-24T06:25:00.583Z,4
2023-04-24T06:30:00.550Z,4
2023-04-24T06:35:00.554Z,5
2023-04-24T06:40:00.746Z,5
2023-04-24T06:45:00.704Z,3
2023-04-24T06:50:00.539Z,3
2023-04-24T06:55:00.571Z,4
2023-04-24T07:00:00.581Z,3
2023-04-24T07:05:00.546Z,3
2023-04-24T07:10:00.532Z,4
2023-04-24T07:15:00.550Z,4
2023-04-24T07:20:00.581Z,4
2023-04-24T07:25:00.580Z,4
2023-04-24T07:30:00.579Z,4
2023-04-24T07:35:00.577Z,4
2023-04-24T07:40:00.529Z,4
2023-04-24T07:45:00.660Z,5
2023-04-24T07:50:00.528Z,5
2023-04-24T07:55:00.677Z,3
2023-04-24T08:00:00.571Z,4
2023-04-24T08:05:00.825Z,4
2023-04-24T08:10:00.550Z,4
2023-04-24T08:15:00.567Z,4
2023-04-24T08:20:00.550Z,3
2023-04-24T08:25:00.518Z,3
2023-04-24T08:30:00.549Z,6
2023-04-24T08:35:00.574Z,3
2023-04-24T08:40:00.565Z,3
2023-04-24T08:45:00.560Z,3
2023-04-24T08:50:00.555Z,4
2023-04-24T08:55:00.711Z,5
2023-04-24T09:00:00.531Z,3
2023-04-24T09:05:00.571Z,5
2023-04-24T09:10:00.672Z,4
2023-04-24T09:15:00.551Z,4
2023-04-24T09:20:00.566Z,4
2023-04-24T09:25:00.570Z,4
2023-04-24T09:30:00.524Z,3
2023-04-24T09:35:00.598Z,5
2023-04-24T09:40:00.557Z,4
2023-04-24T09:45:08.243Z,4
2023-04-24T09:50:00.586Z,5
2023-04-24T09:55:00.601Z,3
2023-04-24T10:00:00.602Z,4
2023-04-24T10:05:01.215Z,4
2023-04-24T10:10:00.394Z,4
2023-04-24T10:15:00.393Z,5
2023-04-24T10:20:00.442Z,5
2023-04-24T10:25:00.435Z,5
2023-04-24T10:30:00.443Z,4
2023-04-24T10:35:00.445Z,5
2023-04-24T10:40:00.589Z,4
2023-04-24T10:45:00.432Z,3
2023-04-24T10:50:00.429Z,4
2023-04-24T10:55:00.421Z,4
2023-04-24T11:00:00.390Z,3
2023-04-24T11:05:00.396Z,5
2023-04-24T11:15:00.693Z,4
2023-04-24T11:20:00.609Z,5
2023-04-24T11:25:00.506Z,6
2023-04-24T11:30:02.315Z,4
2023-04-24T11:40:00.861Z,3
2023-04-24T11:45:00.721Z,2
2023-04-24T11:50:00.780Z,2
2023-04-24T11:55:00.799Z,3
2023-04-24T12:05:00.671Z,4
2023-04-24T12:10:00.819Z,3
2023-04-24T12:15:00.971Z,3
2023-04-24T12:20:00.427Z,4
2023-04-24T12:25:00.416Z,5
2023-04-24T12:30:00.380Z,7
2023-04-24T12:35:00.550Z,6
2023-04-24T12:40:00.385Z,6
2023-04-24T12:45:00.428Z,5
2023-04-24T12:50:00.393Z,4
2023-04-24T12:55:00.413Z,4
2023-04-24T13:00:00.413Z,4
2023-04-24T13:05:00.388Z,3
2023-04-24T13:10:00.654Z,4
2023-04-24T13:15:00.433Z,4
2023-04-24T13:20:00.392Z,4
2023-04-24T13:25:00.398Z,4
2023-04-24T13:30:00.462Z,4
2023-04-24T13:35:00.416Z,5
2023-04-24T13:40:00.477Z,4
2023-04-24T13:45:01.057Z,6
2023-04-24T13:50:00.414Z,6
2023-04-24T13:55:00.394Z,6
2023-04-24T14:00:00.385Z,5
2023-04-24T14:05:00.718Z,5
2023-04-24T14:10:00.435Z,3
2023-04-24T14:15:00.404Z,7
2023-04-24T14:20:00.422Z,7
2023-04-24T14:25:00.424Z,5
2023-04-24T14:30:00.442Z,6
2023-04-24T14:35:00.430Z,5
2023-04-24T14:40:15.669Z,6
2023-04-24T14:45:00.393Z,6
2023-04-24T14:50:00.495Z,7
2023-04-24T14:55:00.461Z,6
2023-04-24T15:00:00.427Z,7
2023-04-24T15:05:00.650Z,5
2023-04-24T15:10:00.506Z,6
2023-04-24T15:15:00.516Z,6
2023-04-24T15:20:00.415Z,6
2023-04-24T15:25:00.444Z,6
2023-04-24T15:30:00.376Z,6
2023-04-24T15:35:07.472Z,5
2023-04-24T15:40:00.467Z,5
2023-04-24T15:45:00.386Z,5
2023-04-24T15:50:00.385Z,5
2023-04-24T15:55:00.431Z,7
2023-04-24T16:00:00.405Z,5
2023-04-24T16:05:00.490Z,6
2023-04-24T16:10:00.384Z,6
2023-04-24T16:15:00.434Z,7
2023-04-24T16:20:00.438Z,8
2023-04-24T16:25:00.583Z,8
2023-04-24T16:30:00.443Z,7
2023-04-24T16:35:00.629Z,7
2023-04-24T16:40:00.426Z,6
2023-04-24T16:45:00.475Z,6
2023-04-24T16:50:00.397Z,4
2023-04-24T16:55:00.433Z,6
2023-04-24T17:00:00.552Z,6
2023-04-24T17:05:00.505Z,6
2023-04-24T17:10:00.451Z,6
2023-04-24T17:15:00.426Z,4
2023-04-24T17:20:03.618Z,5
2023-04-24T17:25:00.444Z,7
2023-04-24T17:30:00.453Z,5
2023-04-24T17:35:00.417Z,6
2023-04-24T17:40:00.402Z,5
2023-04-24T17:45:00.394Z,6
2023-04-24T17:50:00.425Z,6
2023-04-24T17:55:00.439Z,5
2023-04-24T18:00:00.437Z,7
2023-04-24T18:05:00.478Z,7
2023-04-24T18:10:00.557Z,5
2023-04-24T18:20:00.410Z,6
2023-04-24T18:25:00.419Z,5
2023-04-24T18:30:00.360Z,8
2023-04-24T18:35:00.383Z,7
2023-04-24T18:40:00.353Z,7
2023-04-24T18:45:00.387Z,7
2023-04-24T18:50:00.382Z,6
2023-04-24T18:55:00.391Z,6
2023-04-24T19:00:00.378Z,6
2023-04-24T19:05:00.425Z,5
2023-04-24T19:10:00.483Z,6
2023-04-24T19:15:00.367Z,6
2023-04-24T19:20:00.371Z,5
2023-04-24T19:25:00.384Z,4
2023-04-24T19:30:00.391Z,3
2023-04-24T19:35:00.385Z,5
2023-04-24T19:40:00.452Z,5
2023-04-24T19:45:00.372Z,6
2023-04-24T19:50:00.364Z,6
2023-04-24T19:55:00.401Z,6
2023-04-24T20:00:00.412Z,6
2023-04-24T20:05:00.703Z,4
2023-04-24T20:10:00.487Z,5
2023-04-24T20:15:00.399Z,5
2023-04-24T20:20:00.495Z,5
2023-04-24T20:25:00.415Z,5
2023-04-24T20:30:00.357Z,5
2023-04-24T20:35:00.390Z,5
2023-04-24T20:40:00.382Z,4
2023-04-24T20:45:00.388Z,5
2023-04-24T20:50:00.371Z,5
2023-04-24T20:55:00.418Z,4
2023-04-24T21:00:00.387Z,5
2023-04-24T21:05:00.444Z,3
2023-04-24T21:10:00.482Z,3
2023-04-24T21:15:00.439Z,5
2023-04-24T21:20:00.394Z,5
2023-04-24T21:25:00.402Z,4
2023-04-24T21:30:00.402Z,5
2023-04-24T21:35:00.403Z,3
2023-04-24T21:40:00.356Z,4
2023-04-24T21:45:00.388Z,5
2023-04-24T21:50:00.409Z,5
2023-04-24T21:55:00.397Z,4
2023-04-24T22:00:00.362Z,3
2023-04-24T22:05:00.392Z,3
2023-04-24T22:10:00.388Z,3
2023-04-24T22:15:00.386Z,4
2023-04-24T22:20:00.355Z,3
2023-04-24T22:25:00.360Z,4
2023-04-24T22:30:00.384Z,4
2023-04-24T22:35:00.429Z,3
2023-04-24T22:40:00.361Z,5
2023-04-24T22:45:00.386Z,5
2023-04-24T22:50:00.354Z,4
2023-04-24T22:55:00.399Z,4
2023-04-24T23:00:00.390Z,4
2023-04-24T23:05:00.389Z,4
2023-04-24T23:10:00.357Z,4
2023-04-24T23:15:00.403Z,3
2023-04-24T23:20:00.392Z,5
2023-04-24T23:25:00.385Z,5
2023-04-24T23:30:00.438Z,4
2023-04-24T23:35:00.354Z,4
2023-04-24T23:40:00.397Z,5
2023-04-24T23:45:00.392Z,4
2023-04-24T23:50:00.382Z,3
2023-04-24T23:55:00.401Z,4
